Time;durP1;ratioP1;P1;durP2;ratioP2;P2;SDS_P1;SDS_P2;PMS_P1;PMS_P2;Temp;Humidity;BMP_temperature;BMP_pressure;BME280_temperature;BME280_humidity;BME280_pressure;Samples;Min_cycle;Max_cycle;Signal;HPM_P1;HPM_P2
2021/08/03 00:00:31;;;;;;;5.38;3.30;;;;;;;16.58;75.79;100454.28;4968457;28;20035;-83
2021/08/03 00:02:58;;;;;;;7.22;4.22;;;;;;;16.54;75.72;100453.50;4948058;29;20039;-83
2021/08/03 00:05:27;;;;;;;5.97;4.03;;;;;;;16.51;75.48;100458.94;4951717;29;20035;-83
2021/08/03 00:08:14;;;;;;;5.15;3.47;;;;;;;16.46;76.54;100460.88;4961525;28;20051;-83
2021/08/03 00:10:40;;;;;;;5.70;3.53;;;;;;;16.46;75.98;100460.00;4968618;28;20063;-83
2021/08/03 00:13:06;;;;;;;4.95;2.72;;;;;;;16.48;76.06;100466.13;4948318;29;20494;-83
2021/08/03 00:15:31;;;;;;;4.63;3.33;;;;;;;16.47;75.89;100457.28;4935164;29;20059;-83
2021/08/03 00:17:57;;;;;;;5.95;3.45;;;;;;;16.46;75.79;100455.56;4950488;29;20049;-83
2021/08/03 00:20:24;;;;;;;7.45;3.75;;;;;;;16.45;75.79;100456.44;4974716;28;20123;-84
2021/08/03 00:22:51;;;;;;;6.68;4.18;;;;;;;16.41;76.18;100465.47;4967155;28;20031;-83
2021/08/03 00:25:17;;;;;;;5.20;3.80;;;;;;;16.38;76.04;100463.78;4975292;28;20078;-83
2021/08/03 00:27:43;;;;;;;5.93;3.20;;;;;;;16.36;75.90;100470.06;4954955;28;20050;-84
2021/08/03 00:30:09;;;;;;;6.63;3.20;;;;;;;16.30;76.25;100464.94;4955425;28;20031;-84
2021/08/03 00:32:35;;;;;;;5.25;3.17;;;;;;;16.31;76.27;100464.00;4937735;28;20074;-84
2021/08/03 00:35:01;;;;;;;7.93;3.40;;;;;;;16.32;75.96;100469.31;4939092;28;20054;-84
2021/08/03 00:37:26;;;;;;;5.35;3.22;;;;;;;16.32;76.34;100460.41;4938080;28;20039;-84
2021/08/03 00:39:52;;;;;;;5.45;3.20;;;;;;;16.34;76.21;100466.56;4954685;28;20037;-84
2021/08/03 00:42:18;;;;;;;5.10;3.25;;;;;;;16.38;75.88;100460.25;4939283;28;20040;-84
2021/08/03 00:44:49;;;;;;;5.80;3.35;;;;;;;16.42;75.57;100462.75;4953295;28;20114;-84
2021/08/03 00:47:21;;;;;;;4.20;2.90;;;;;;;16.41;75.47;100463.69;4946648;28;20035;-85
2021/08/03 00:49:50;;;;;;;5.88;3.42;;;;;;;16.40;75.39;100464.59;4941150;28;20040;-84
2021/08/03 00:52:16;;;;;;;6.13;3.72;;;;;;;16.37;75.62;100461.16;4937920;29;20035;-84
2021/08/03 00:54:43;;;;;;;8.55;3.45;;;;;;;16.36;75.33;100456.75;4976885;28;20027;-85
2021/08/03 00:57:11;;;;;;;8.98;3.80;;;;;;;16.23;76.11;100452.72;4942735;28;20047;-84
2021/08/03 00:59:37;;;;;;;6.95;3.90;;;;;;;16.15;75.97;100451.16;4950784;28;20035;-84
2021/08/03 01:02:05;;;;;;;5.75;4.00;;;;;;;16.14;75.91;100457.41;4971433;28;20042;-84
2021/08/03 01:04:31;;;;;;;5.72;3.63;;;;;;;16.07;76.12;100453.19;4954891;28;20196;-84
2021/08/03 01:07:13;;;;;;;6.07;3.85;;;;;;;15.96;76.46;100455.31;4954997;28;20031;-85
2021/08/03 01:09:39;;;;;;;5.72;4.03;;;;;;;15.95;76.55;100454.41;4954838;29;20145;-84
2021/08/03 01:12:23;;;;;;;5.78;3.80;;;;;;;15.89;77.14;100459.06;4934432;29;20131;-84
2021/08/03 01:14:56;;;;;;;7.05;3.95;;;;;;;15.88;76.90;100460.00;4955943;28;20038;-83
2021/08/03 01:17:31;;;;;;;5.45;3.88;;;;;;;15.90;76.99;100463.44;4939595;28;20051;-84
2021/08/03 01:20:03;;;;;;;6.57;3.63;;;;;;;15.88;77.02;100460.00;4949364;28;20035;-83
2021/08/03 01:23:03;;;;;;;7.53;3.95;;;;;;;15.86;77.73;100453.84;4937569;28;20041;-84
2021/08/03 01:25:49;;;;;;;4.60;3.25;;;;;;;15.90;76.98;100467.00;4965358;28;20114;-84
2021/08/03 01:28:20;;;;;;;6.47;4.05;;;;;;;15.93;76.75;100466.06;4932348;29;20066;-84
2021/08/03 01:30:52;;;;;;;5.90;3.78;;;;;;;16.00;76.42;100464.94;4939012;28;20450;-85
2021/08/03 01:33:22;;;;;;;5.70;4.05;;;;;;;16.01;76.11;100466.69;4970385;28;20534;-84
2021/08/03 01:35:51;;;;;;;5.50;3.37;;;;;;;16.00;76.13;100468.47;4917786;29;20038;-84
2021/08/03 01:38:20;;;;;;;6.90;3.53;;;;;;;15.98;76.24;100464.09;4933931;28;20277;-84
2021/08/03 01:40:48;;;;;;;6.90;3.58;;;;;;;16.00;76.02;100464.94;4952444;28;20031;-84
2021/08/03 01:43:15;;;;;;;5.63;3.85;;;;;;;16.05;75.88;100467.47;4934249;29;20075;-84
2021/08/03 01:45:44;;;;;;;6.45;3.58;;;;;;;15.96;76.29;100471.28;4954386;28;20037;-84
2021/08/03 01:48:12;;;;;;;5.80;3.35;;;;;;;15.94;76.20;100479.28;4954114;28;20033;-83
2021/08/03 01:50:40;;;;;;;7.38;3.78;;;;;;;15.86;76.78;100483.97;4973923;28;20126;-83
2021/08/03 01:53:08;;;;;;;5.72;3.58;;;;;;;15.87;76.89;100487.50;4958688;28;20081;-85
2021/08/03 01:55:35;;;;;;;6.18;3.47;;;;;;;15.86;76.78;100485.78;4952408;28;20039;-84
2021/08/03 01:58:07;;;;;;;6.88;3.70;;;;;;;15.89;76.36;100485.69;4948412;28;20138;-83
2021/08/03 02:00:45;;;;;;;7.75;3.42;;;;;;;15.82;76.41;100484.97;4952240;28;20039;-83
2021/08/03 02:03:15;;;;;;;5.97;3.70;;;;;;;15.76;76.70;100488.69;4953633;28;20046;-83
2021/08/03 02:05:43;;;;;;;6.82;3.47;;;;;;;15.75;76.52;100483.41;4968368;28;20171;-83
2021/08/03 02:08:19;;;;;;;8.07;3.67;;;;;;;15.73;76.46;100475.47;4947722;28;20066;-83
2021/08/03 02:10:48;;;;;;;4.53;3.00;;;;;;;15.71;76.39;100479.09;4953091;28;20031;-84
2021/08/03 02:13:16;;;;;;;5.18;3.03;;;;;;;15.70;76.15;100480.00;4935500;28;20118;-84
2021/08/03 02:15:43;;;;;;;4.80;2.63;;;;;;;15.76;76.00;100478.03;4952030;28;20085;-84
2021/08/03 02:18:08;;;;;;;5.47;2.92;;;;;;;15.75;76.30;100484.28;4968959;28;20517;-84
2021/08/03 02:20:42;;;;;;;6.68;3.20;;;;;;;15.80;75.94;100480.59;4951753;28;20046;-83
2021/08/03 02:23:08;;;;;;;5.95;2.85;;;;;;;15.73;76.52;100477.25;4952862;28;20035;-84
2021/08/03 02:25:38;;;;;;;5.95;3.10;;;;;;;15.61;76.54;100478.41;4949719;29;20494;-84
2021/08/03 02:28:04;;;;;;;6.18;3.22;;;;;;;15.57;76.71;100498.06;4930299;29;20039;-84
2021/08/03 02:30:32;;;;;;;4.95;2.90;;;;;;;15.53;77.51;100491.94;4953291;28;20030;-84
2021/08/03 02:33:06;;;;;;;6.25;2.83;;;;;;;15.52;77.28;100492.00;4950616;28;20122;-84
2021/08/03 02:35:45;;;;;;;4.32;3.10;;;;;;;15.50;77.33;100493.81;4952643;28;20069;-84
2021/08/03 02:38:14;;;;;;;9.25;3.38;;;;;;;15.59;77.18;100482.94;4971103;28;20089;-83
2021/08/03 02:40:43;;;;;;;8.18;3.40;;;;;;;15.68;76.50;100485.31;4947357;28;20127;-84
2021/08/03 02:43:19;;;;;;;5.32;2.72;;;;;;;15.74;75.95;100477.19;4969467;28;20035;-84
2021/08/03 02:45:49;;;;;;;6.00;3.17;;;;;;;15.76;75.40;100480.69;4968848;28;20031;-83
2021/08/03 02:48:18;;;;;;;5.60;3.13;;;;;;;15.83;75.91;100472.56;4934493;28;20050;-84
2021/08/03 02:50:45;;;;;;;5.60;2.80;;;;;;;15.86;75.51;100478.66;4966869;28;20126;-84
2021/08/03 02:53:20;;;;;;;7.03;2.67;;;;;;;15.84;76.07;100484.94;4953526;28;20039;-83
2021/08/03 02:55:51;;;;;;;4.78;2.28;;;;;;;15.86;75.44;100476.00;4964683;28;20059;-83
2021/08/03 02:58:25;;;;;;;4.13;2.30;;;;;;;15.89;75.48;100475.91;4951758;28;20053;-84
2021/08/03 03:00:51;;;;;;;3.83;2.55;;;;;;;15.98;75.13;100491.63;4945087;28;20042;-84
2021/08/03 03:03:22;;;;;;;4.55;2.88;;;;;;;15.98;75.27;100496.03;4934381;29;20035;-84
2021/08/03 03:05:54;;;;;;;5.95;2.97;;;;;;;15.98;75.12;100496.03;4914839;29;20035;-84
2021/08/03 03:08:23;;;;;;;4.70;2.90;;;;;;;15.88;75.05;100495.44;4937208;28;20039;-84
2021/08/03 03:10:52;;;;;;;9.00;3.03;;;;;;;15.88;75.47;100491.94;4936920;28;20034;-83
2021/08/03 03:13:27;;;;;;;4.60;2.60;;;;;;;15.90;75.31;100495.38;4952023;28;20049;-84
2021/08/03 03:15:54;;;;;;;6.20;3.10;;;;;;;15.86;75.42;100497.28;4950112;28;20035;-84
2021/08/03 03:18:20;;;;;;;5.78;3.38;;;;;;;15.93;75.05;100490.00;4952678;28;20114;-83
2021/08/03 03:20:47;;;;;;;4.97;2.90;;;;;;;15.90;75.00;100498.94;4967069;28;20047;-83
2021/08/03 03:23:16;;;;;;;3.33;2.20;;;;;;;15.93;75.21;100498.00;4970335;28;20501;-84
2021/08/03 03:25:43;;;;;;;5.53;2.70;;;;;;;16.00;74.65;100491.56;4962546;28;20533;-83
2021/08/03 03:28:11;;;;;;;4.88;2.80;;;;;;;15.95;74.91;100496.13;4950744;28;20542;-84
2021/08/03 03:30:38;;;;;;;7.05;2.80;;;;;;;15.98;74.76;100493.38;4965621;28;20118;-84
2021/08/03 03:33:05;;;;;;;6.60;2.88;;;;;;;16.00;74.73;100487.09;4949884;28;20031;-84
2021/08/03 03:35:37;;;;;;;4.30;2.42;;;;;;;16.05;74.52;100481.63;4965580;28;20439;-85
2021/08/03 03:38:04;;;;;;;3.53;2.40;;;;;;;16.14;74.48;100486.72;4952957;28;20610;-84
2021/08/03 03:40:31;;;;;;;5.10;2.78;;;;;;;16.15;74.12;100483.13;4950518;28;20038;-84
2021/08/03 03:42:57;;;;;;;3.67;2.50;;;;;;;16.16;74.38;100484.84;4921011;28;20405;-85
2021/08/03 03:45:24;;;;;;;6.45;2.80;;;;;;;16.09;74.07;100493.97;4945266;28;20027;-84
2021/08/03 03:47:57;;;;;;;6.18;2.65;;;;;;;16.00;74.91;100496.88;4951485;28;20037;-84
2021/08/03 03:50:29;;;;;;;8.55;2.60;;;;;;;15.98;74.59;100498.69;4936487;28;20478;-83
2021/08/03 03:53:03;;;;;;;5.43;2.90;;;;;;;15.96;74.98;100503.22;4954855;28;20042;-84
2021/08/03 03:55:30;;;;;;;3.90;2.53;;;;;;;16.04;74.46;100500.34;4951154;28;20122;-84
2021/08/03 03:57:56;;;;;;;3.67;2.45;;;;;;;16.04;74.25;100498.53;4945311;28;20043;-83
2021/08/03 04:00:22;;;;;;;5.53;2.47;;;;;;;16.11;74.31;100505.44;4941254;28;20058;-82
2021/08/03 04:02:56;;;;;;;5.00;2.38;;;;;;;16.08;74.38;100508.16;4948962;28;20122;-83
2021/08/03 04:05:24;;;;;;;4.53;2.20;;;;;;;16.04;74.38;100505.66;4949296;28;20038;-83
2021/08/03 04:07:49;;;;;;;4.55;2.25;;;;;;;16.10;74.33;100511.66;4952630;28;20066;-83
2021/08/03 04:10:17;;;;;;;4.18;2.50;;;;;;;16.20;73.94;100515.81;4967151;28;20042;-84
2021/08/03 04:12:43;;;;;;;5.40;2.70;;;;;;;16.19;74.22;100523.81;4934492;28;20405;-83
2021/08/03 04:15:10;;;;;;;5.65;2.78;;;;;;;16.13;74.40;100532.00;4921822;29;20028;-84
2021/08/03 04:17:35;;;;;;;5.68;2.70;;;;;;;16.16;73.99;100538.09;4934090;28;20050;-84
2021/08/03 04:20:03;;;;;;;9.23;3.50;;;;;;;16.14;74.26;100537.28;4948963;28;20035;-83
2021/08/03 04:22:28;;;;;;;5.97;2.90;;;;;;;16.08;74.46;100542.78;4966716;28;20086;-85
2021/08/03 04:24:54;;;;;;;6.55;2.72;;;;;;;16.01;74.54;100527.91;4954036;28;20038;-84
2021/08/03 04:27:19;;;;;;;5.20;2.65;;;;;;;16.09;74.49;100528.56;4924008;28;20041;-84
2021/08/03 04:29:45;;;;;;;5.93;2.92;;;;;;;16.16;74.16;100534.56;4945445;28;20039;-82
2021/08/03 04:32:10;;;;;;;5.05;3.00;;;;;;;16.11;75.07;100531.16;4937786;28;20027;-84
2021/08/03 04:34:36;;;;;;;8.88;3.17;;;;;;;16.11;74.81;100532.06;4955297;28;20598;-83
2021/08/03 04:37:01;;;;;;;4.88;3.00;;;;;;;16.16;74.60;100526.59;4946852;28;20070;-84
2021/08/03 04:39:28;;;;;;;6.63;2.80;;;;;;;16.25;74.70;100520.13;4945498;28;20030;-82
2021/08/03 04:41:54;;;;;;;5.00;3.10;;;;;;;16.31;73.80;100526.13;4940419;28;20043;-83
2021/08/03 04:44:19;;;;;;;5.05;3.00;;;;;;;16.38;74.44;100510.84;4965305;28;20557;-84
2021/08/03 04:46:45;;;;;;;5.75;2.60;;;;;;;16.46;74.43;100508.81;4961986;28;20035;-81
2021/08/03 04:49:10;;;;;;;7.60;3.35;;;;;;;16.54;74.56;100519.25;4955371;28;20056;-81
2021/08/03 04:51:35;;;;;;;6.72;3.67;;;;;;;16.39;75.16;100513.44;4930899;28;20090;-82
2021/08/03 04:54:01;;;;;;;5.75;3.10;;;;;;;16.43;75.11;100506.25;4952709;28;20034;-82
2021/08/03 04:56:26;;;;;;;5.80;3.05;;;;;;;16.55;74.91;100503.19;4966843;28;20025;-83
2021/08/03 04:58:52;;;;;;;7.90;5.47;;;;;;;16.62;74.75;100506.56;4950949;28;20043;-84
2021/08/03 05:01:17;;;;;;;11.60;4.80;;;;;;;16.64;74.51;100510.06;4966804;28;20038;-83
2021/08/03 05:03:42;;;;;;;4.97;3.15;;;;;;;16.63;73.50;100508.28;4965994;28;20057;-83
2021/08/03 05:06:08;;;;;;;4.75;2.83;;;;;;;16.61;73.96;100502.13;4969267;28;20046;-83
2021/08/03 05:08:33;;;;;;;4.78;2.63;;;;;;;16.65;73.17;100512.66;4966786;28;20039;-83
2021/08/03 05:10:58;;;;;;;7.40;3.22;;;;;;;16.61;73.53;100505.69;4969776;28;20035;-83
2021/08/03 05:13:24;;;;;;;6.68;3.08;;;;;;;16.53;73.57;100505.06;4967327;28;20039;-84
2021/08/03 05:15:49;;;;;;;5.82;2.80;;;;;;;16.46;73.89;100516.81;4969713;28;20043;-83
2021/08/03 05:18:15;;;;;;;5.40;2.92;;;;;;;16.40;74.32;100509.00;4966975;28;20031;-83
2021/08/03 05:20:41;;;;;;;5.88;3.22;;;;;;;16.36;74.57;100508.22;4945925;29;20046;-83
2021/08/03 05:23:06;;;;;;;5.05;3.50;;;;;;;16.25;75.68;100514.81;4947604;29;20044;-83
2021/08/03 05:25:31;;;;;;;7.25;3.63;;;;;;;16.15;75.85;100515.06;4945190;29;20054;-83
2021/08/03 05:27:57;;;;;;;6.30;3.42;;;;;;;16.24;75.51;100511.25;4968642;28;20046;-83
2021/08/03 05:30:22;;;;;;;6.95;3.40;;;;;;;16.32;75.41;100511.03;4926439;29;20039;-83
2021/08/03 05:32:47;;;;;;;7.15;3.10;;;;;;;16.41;75.20;100513.41;4932764;28;20046;-83
2021/08/03 05:35:13;;;;;;;6.18;3.25;;;;;;;16.50;75.24;100514.91;4937712;28;20027;-83
2021/08/03 05:37:38;;;;;;;8.65;3.97;;;;;;;16.57;74.79;100511.16;4930550;29;20043;-83
2021/08/03 05:40:08;;;;;;;6.00;3.70;;;;;;;16.69;74.82;100509.88;4953712;28;20039;-83
2021/08/03 05:42:34;;;;;;;6.53;3.50;;;;;;;16.77;74.38;100514.09;4950750;28;20057;-83
2021/08/03 05:45:00;;;;;;;6.28;3.33;;;;;;;16.96;73.84;100514.38;4971244;28;20482;-84
2021/08/03 05:47:25;;;;;;;9.68;3.60;;;;;;;17.08;72.92;100521.97;4954435;28;20041;-84
2021/08/03 05:49:50;;;;;;;5.97;3.42;;;;;;;17.16;72.36;100510.16;4936017;28;20126;-83
2021/08/03 05:52:18;;;;;;;7.00;3.47;;;;;;;17.35;72.32;100508.63;4971569;28;20034;-84
2021/08/03 05:54:43;;;;;;;5.90;2.92;;;;;;;17.56;71.76;100507.00;4951334;28;20186;-84
2021/08/03 05:57:08;;;;;;;7.40;3.38;;;;;;;17.62;71.14;100508.56;4953156;28;20070;-83
2021/08/03 05:59:34;;;;;;;5.32;3.00;;;;;;;17.63;70.93;100505.88;4935479;28;20410;-84
2021/08/03 06:01:59;;;;;;;8.25;3.15;;;;;;;17.69;70.83;100507.44;4952559;28;20050;-83
2021/08/03 06:09:52;;;;;;;9.85;5.10;;;;;;;18.04;69.35;100495.47;4969190;28;20082;-83
2021/08/03 06:12:20;;;;;;;9.80;5.25;;;;;;;18.13;69.25;100499.59;4949535;28;20055;-84
2021/08/03 06:14:48;;;;;;;7.78;3.35;;;;;;;18.16;69.07;100502.19;4968573;28;20035;-84
2021/08/03 06:17:17;;;;;;;4.72;3.15;;;;;;;18.19;68.68;100502.06;4950341;28;20058;-83
2021/08/03 06:19:49;;;;;;;5.63;2.88;;;;;;;18.28;68.55;100493.69;4949688;28;20105;-84
2021/08/03 06:22:16;;;;;;;5.97;3.20;;;;;;;18.30;68.09;100505.19;4970021;28;20053;-84
2021/08/03 06:24:43;;;;;;;6.38;2.28;;;;;;;18.28;68.17;100499.00;4967984;28;20039;-84
2021/08/03 06:27:11;;;;;;;6.47;3.70;;;;;;;18.30;68.16;100497.16;4952883;28;20050;-84
2021/08/03 06:29:38;;;;;;;6.22;3.08;;;;;;;18.43;67.67;100502.03;4968377;28;20042;-84
2021/08/03 06:32:04;;;;;;;12.50;5.00;;;;;;;18.62;67.65;100503.91;4951290;28;20532;-84
2021/08/03 06:34:32;;;;;;;5.97;3.20;;;;;;;18.82;66.54;100503.16;4968500;28;20418;-84
2021/08/03 06:36:58;;;;;;;6.15;3.50;;;;;;;19.00;66.44;100508.69;4968610;28;20122;-84
2021/08/03 06:39:23;;;;;;;7.50;4.70;;;;;;;19.03;65.94;100505.88;4969919;28;20119;-84
2021/08/03 06:41:48;;;;;;;7.82;4.65;;;;;;;19.10;65.44;100506.47;4951297;28;20066;-83
2021/08/03 06:44:22;;;;;;;6.13;3.50;;;;;;;19.13;65.54;100501.03;4969257;28;20038;-84
2021/08/03 06:46:52;;;;;;;7.38;3.00;;;;;;;19.15;64.86;100501.81;4970919;28;20031;-84
2021/08/03 06:49:18;;;;;;;6.80;3.33;;;;;;;19.29;65.15;100509.28;4967119;28;20059;-84
2021/08/03 06:51:46;;;;;;;6.05;3.92;;;;;;;19.45;64.72;100511.22;4953424;28;20541;-84
2021/08/03 06:54:13;;;;;;;5.45;3.17;;;;;;;19.68;64.22;100518.28;4950687;28;20054;-84
2021/08/03 06:56:53;;;;;;;6.93;2.92;;;;;;;19.81;63.52;100518.59;4953557;28;20744;-84
2021/08/03 06:59:26;;;;;;;7.13;3.85;;;;;;;19.93;62.89;100522.53;4952247;28;20027;-84
2021/08/03 07:02:06;;;;;;;5.97;4.55;;;;;;;20.14;62.93;100516.19;4968544;28;20509;-84
2021/08/03 07:05:10;;;;;;;5.38;3.33;;;;;;;20.33;60.80;100521.59;4970037;28;20042;-84
2021/08/03 07:07:36;;;;;;;4.00;2.53;;;;;;;20.43;61.53;100515.78;4955856;28;20090;-84
2021/08/03 07:10:05;;;;;;;4.85;2.90;;;;;;;20.53;61.32;100511.72;4971411;28;20130;-85
2021/08/03 07:12:31;;;;;;;3.85;2.50;;;;;;;20.78;60.88;100509.63;4950577;28;20039;-84
2021/08/03 07:14:57;;;;;;;4.47;2.95;;;;;;;20.99;60.09;100515.75;4972199;28;20034;-84
2021/08/03 07:17:25;;;;;;;5.38;4.15;;;;;;;21.13;59.45;100511.50;4969800;28;20039;-84
2021/08/03 07:19:51;;;;;;;5.35;4.00;;;;;;;21.35;59.12;100513.97;4953512;28;20031;-84
2021/08/03 07:22:16;;;;;;;5.07;2.78;;;;;;;21.51;58.45;100506.91;4949798;29;20398;-84
2021/08/03 07:24:48;;;;;;;5.40;3.25;;;;;;;21.60;57.80;100517.16;4968369;28;20075;-84
2021/08/03 07:27:14;;;;;;;4.55;3.28;;;;;;;21.77;57.14;100512.69;4970461;28;20034;-84
2021/08/03 07:29:40;;;;;;;4.55;3.10;;;;;;;22.04;56.40;100511.25;4970366;28;20050;-84
2021/08/03 07:32:08;;;;;;;6.75;3.47;;;;;;;22.00;55.71;100509.66;4969572;28;20122;-84
2021/08/03 07:34:36;;;;;;;6.85;3.90;;;;;;;21.85;56.15;100511.38;4969452;28;20055;-84
2021/08/03 07:37:01;;;;;;;5.90;2.95;;;;;;;21.74;56.72;100497.63;4950802;28;20102;-84
2021/08/03 07:39:27;;;;;;;5.28;3.05;;;;;;;21.80;56.29;100496.44;4956867;28;20043;-85
2021/08/03 07:41:53;;;;;;;6.93;3.50;;;;;;;21.64;57.23;100505.31;4954871;28;20034;-84
2021/08/03 07:44:19;;;;;;;5.47;2.90;;;;;;;21.62;57.68;100503.66;4952292;28;20035;-84
2021/08/03 07:46:44;;;;;;;5.50;2.50;;;;;;;21.72;57.22;100506.69;4972671;28;20034;-84
2021/08/03 07:49:10;;;;;;;4.97;2.88;;;;;;;21.93;56.50;100502.91;4936270;29;20124;-84
2021/08/03 07:51:35;;;;;;;5.22;2.92;;;;;;;21.93;56.33;100488.56;4971756;28;20499;-84
2021/08/03 07:54:00;;;;;;;8.77;3.13;;;;;;;21.97;55.98;100501.75;4967709;28;20038;-84
2021/08/03 07:56:26;;;;;;;5.07;2.50;;;;;;;;;;4971759;28;20057;-84
2021/08/03 07:58:51;;;;;;;4.10;2.53;;;;;;;22.44;54.41;100498.31;4950958;29;20043;-84
2021/08/03 08:01:19;;;;;;;5.68;2.92;;;;;;;22.57;54.52;100500.31;4970551;28;20050;-84
2021/08/03 08:03:46;;;;;;;6.05;2.95;;;;;;;22.39;54.26;100494.16;4954927;28;20095;-84
2021/08/03 08:06:11;;;;;;;7.30;2.70;;;;;;;22.34;53.85;100490.84;4938958;28;20035;-84
2021/08/03 08:08:37;;;;;;;5.22;3.35;;;;;;;;;;4967991;28;20038;-84
2021/08/03 08:11:02;;;;;;;6.82;3.10;;;;;;;22.38;54.56;100489.75;4978018;28;20526;-84
2021/08/03 08:13:27;;;;;;;6.07;3.50;;;;;;;22.58;54.21;100494.84;4969293;28;20047;-84
2021/08/03 08:15:53;;;;;;;8.48;2.67;;;;;;;22.63;53.96;100487.38;4972333;28;20039;-84
2021/08/03 08:18:18;;;;;;;6.18;2.67;;;;;;;22.62;54.04;100484.78;4949152;28;20037;-84
2021/08/03 08:20:45;;;;;;;6.65;2.95;;;;;;;22.50;54.25;100489.91;4965650;28;20030;-84
2021/08/03 08:23:13;;;;;;;5.47;3.08;;;;;;;22.61;53.40;100493.81;4973211;28;20026;-84
2021/08/03 08:25:38;;;;;;;5.70;3.33;;;;;;;22.47;53.81;100497.28;4960555;28;20073;-84
2021/08/03 08:28:04;;;;;;;5.40;2.80;;;;;;;22.66;53.58;100495.31;4952445;28;20047;-84
2021/08/03 08:30:30;;;;;;;6.32;3.60;;;;;;;22.52;53.58;100492.50;4939762;28;20023;-84
2021/08/03 08:32:55;;;;;;;5.68;3.15;;;;;;;22.46;53.50;100488.34;4980494;28;20556;-84
2021/08/03 08:35:21;;;;;;;6.90;3.28;;;;;;;22.56;53.79;100491.41;4967343;28;20097;-84
2021/08/03 08:37:47;;;;;;;6.13;3.55;;;;;;;22.68;53.16;100485.28;4964835;28;20166;-83
2021/08/03 08:40:17;;;;;;;5.60;3.40;;;;;;;22.54;52.49;100485.22;4959808;28;20069;-84
2021/08/03 08:42:46;;;;;;;7.05;4.40;;;;;;;22.44;52.59;100476.81;4945857;28;20102;-84
2021/08/03 08:47:48;;;;;;;9.27;4.28;;;;;;;22.23;53.50;100470.81;4993870;28;20069;-84
2021/08/03 08:50:20;;;;;;;6.57;3.78;;;;;;;22.39;52.94;100478.88;4978525;28;20074;-84
2021/08/03 08:52:49;;;;;;;7.75;3.85;;;;;;;22.50;52.21;100475.59;4989686;28;20035;-84
2021/08/03 08:55:14;;;;;;;7.40;4.65;;;;;;;22.41;52.40;100478.81;5001298;28;20017;-84
2021/08/03 08:57:39;;;;;;;8.75;4.18;;;;;;;22.33;52.34;100476.53;4995093;28;20141;-84
2021/08/03 09:00:07;;;;;;;7.22;4.38;;;;;;;22.33;53.25;100479.25;4994735;28;20066;-84
2021/08/03 09:02:36;;;;;;;9.13;4.47;;;;;;;22.52;53.38;100476.38;4976315;28;20489;-84
2021/08/03 09:05:02;;;;;;;8.02;3.83;;;;;;;22.72;51.60;100477.94;4974121;28;20042;-84
2021/08/03 09:07:27;;;;;;;8.38;4.05;;;;;;;23.03;51.24;100474.38;4970604;28;20185;-84
2021/08/03 09:09:53;;;;;;;10.05;4.50;;;;;;;23.29;50.50;100477.31;4992542;28;20082;-84
2021/08/03 09:12:32;;;;;;;7.28;4.43;;;;;;;23.31;50.25;100481.63;4994621;28;20517;-84
2021/08/03 09:14:58;;;;;;;7.80;4.10;;;;;;;23.60;49.96;100479.00;4976146;28;20030;-83
2021/08/03 09:17:28;;;;;;;5.75;4.30;;;;;;;23.63;49.38;100479.72;4999640;28;20479;-84
2021/08/03 09:19:54;;;;;;;5.07;3.33;;;;;;;23.83;49.42;100485.72;4998302;28;20041;-84
2021/08/03 09:22:23;;;;;;;7.72;3.13;;;;;;;23.93;49.26;100480.63;5000843;28;20112;-83
2021/08/03 09:24:50;;;;;;;4.55;3.08;;;;;;;23.54;48.20;100480.25;5002621;28;20615;-84
2021/08/03 09:30:41;;;;;;;6.93;3.33;;;;;;;23.09;50.98;100484.75;4939724;29;20490;-83
2021/08/03 09:33:07;;;;;;;7.22;3.42;;;;;;;23.03;51.02;100479.75;4935654;29;20058;-83
2021/08/03 09:35:33;;;;;;;5.13;2.90;;;;;;;22.98;50.06;100489.91;4970741;28;20042;-83
2021/08/03 09:37:59;;;;;;;4.05;2.90;;;;;;;22.82;51.00;100483.63;4978859;28;20051;-83
2021/08/03 09:40:34;;;;;;;5.18;3.45;;;;;;;23.04;50.41;100483.28;4995311;28;20035;-83
2021/08/03 09:43:07;;;;;;;4.95;3.42;;;;;;;23.10;49.76;100473.00;4974360;28;20043;-83
2021/08/03 09:45:54;;;;;;;5.22;2.80;;;;;;;22.99;50.07;100483.56;4989007;28;20038;-83
2021/08/03 09:48:22;;;;;;;5.93;3.30;;;;;;;22.62;50.54;100474.91;4970719;28;20030;-83
2021/08/03 09:51:00;;;;;;;5.10;3.60;;;;;;;22.60;50.25;100484.00;4973457;28;20046;-83
2021/08/03 09:53:47;;;;;;;5.13;3.20;;;;;;;22.80;50.77;100483.75;4990078;28;20038;-83
2021/08/03 09:56:15;;;;;;;4.65;3.28;;;;;;;23.02;50.19;100472.59;4989461;28;20387;-83
2021/08/03 09:58:56;;;;;;;8.55;3.50;;;;;;;22.91;49.26;100475.91;4970653;28;20112;-83
2021/08/03 10:01:29;;;;;;;4.05;3.35;;;;;;;22.76;49.23;100474.97;4975767;28;20557;-82
2021/08/03 10:04:07;;;;;;;4.60;2.83;;;;;;;22.81;49.64;100469.31;4996042;28;20038;-84
2021/08/03 10:06:33;;;;;;;4.10;3.03;;;;;;;22.93;48.27;100478.50;4988749;28;20030;-83
2021/08/03 10:08:59;;;;;;;4.47;2.83;;;;;;;22.69;49.28;100470.91;4985850;28;20045;-83
2021/08/03 10:11:25;;;;;;;3.97;2.90;;;;;;;22.45;49.13;100466.91;4973309;28;20034;-84
2021/08/03 10:13:52;;;;;;;4.22;3.08;;;;;;;22.31;50.53;100462.31;4984804;28;20038;-83
2021/08/03 10:16:18;;;;;;;5.70;2.92;;;;;;;22.35;50.09;100471.97;4989538;28;20089;-82
2021/08/03 10:18:47;;;;;;;3.88;3.20;;;;;;;22.48;50.21;100464.06;4984236;28;20039;-83
2021/08/03 10:21:22;;;;;;;5.05;3.30;;;;;;;22.49;49.54;100473.88;4981051;28;20167;-82
2021/08/03 10:23:48;;;;;;;5.15;3.25;;;;;;;22.48;49.73;100464.06;4992810;28;20043;-83
2021/08/03 10:26:15;;;;;;;4.10;3.58;;;;;;;22.69;49.20;100461.97;4959352;28;20026;-82
2021/08/03 10:28:41;;;;;;;7.55;3.95;;;;;;;22.71;49.01;100457.34;4970174;28;20050;-83
2021/08/03 10:31:40;;;;;;;5.80;3.72;;;;;;;22.94;48.54;100458.69;4986659;28;20153;-82
2021/08/03 10:34:06;;;;;;;4.60;4.20;;;;;;;23.34;48.18;100456.34;4992247;28;20125;-82
2021/08/03 10:36:41;;;;;;;5.65;4.20;;;;;;;23.60;48.52;100454.75;4967381;28;20049;-81
2021/08/03 10:39:08;;;;;;;4.13;3.70;;;;;;;23.74;47.09;100451.28;4974912;28;20045;-83
2021/08/03 10:41:59;;;;;;;6.28;3.85;;;;;;;24.17;45.40;100440.44;4966438;28;20057;-83
2021/08/03 10:44:49;;;;;;;6.90;4.50;;;;;;;24.49;44.56;100435.69;4968015;28;20137;-83
2021/08/03 10:47:30;;;;;;;5.15;3.65;;;;;;;24.52;44.42;100435.47;4984970;28;20517;-83
2021/08/03 10:49:57;;;;;;;4.47;3.47;;;;;;;24.58;44.75;100434.25;4988316;28;20486;-83
2021/08/03 10:52:45;;;;;;;3.60;2.60;;;;;;;24.31;44.05;100436.84;4983352;28;20500;-82
2021/08/03 10:55:45;;;;;;;4.53;2.72;;;;;;;24.12;44.33;100421.88;4987902;28;20042;-82
2021/08/03 10:58:10;;;;;;;5.40;3.10;;;;;;;24.14;44.70;100425.34;4987125;28;20873;-84
2021/08/03 11:00:47;;;;;;;4.20;2.97;;;;;;;24.42;44.06;100418.16;4985784;28;20050;-83
2021/08/03 11:03:34;;;;;;;5.50;3.15;;;;;;;24.60;42.44;100421.47;4986185;28;20378;-83
2021/08/03 11:05:59;;;;;;;4.32;3.65;;;;;;;24.67;43.61;100414.72;4986550;28;20409;-83
2021/08/03 11:08:29;;;;;;;4.40;2.85;;;;;;;24.82;42.26;100418.22;4986068;28;20023;-83
2021/08/03 11:11:05;;;;;;;3.80;2.60;;;;;;;24.96;42.42;100411.88;4988042;28;20039;-83
2021/08/03 11:13:37;;;;;;;4.93;2.80;;;;;;;25.27;42.19;100408.84;4987866;28;20041;-83
2021/08/03 11:16:03;;;;;;;4.88;3.63;;;;;;;25.18;42.82;100401.41;4987950;28;20074;-83
2021/08/03 11:18:40;;;;;;;4.55;3.03;;;;;;;25.19;41.63;100403.09;4987237;28;20541;-83
2021/08/03 11:21:06;;;;;;;9.68;4.05;;;;;;;25.19;42.51;100397.72;4968934;28;20058;-83
2021/08/03 11:23:57;;;;;;;4.60;3.30;;;;;;;25.19;42.41;100403.09;4989182;28;20141;-83
2021/08/03 11:26:25;;;;;;;5.30;4.18;;;;;;;25.10;42.88;100392.94;4985856;28;20185;-83
2021/08/03 11:28:58;;;;;;;5.32;3.50;;;;;;;25.03;41.77;100391.63;4985990;28;20564;-83
2021/08/03 11:31:41;;;;;;;3.72;2.15;;;;;;;25.23;39.79;100399.25;4971651;28;20038;-83
2021/08/03 11:34:07;;;;;;;2.65;1.67;;;;;;;25.06;41.19;100394.09;4989182;28;20046;-83
2021/08/03 11:36:33;;;;;;;3.30;1.80;;;;;;;25.20;40.34;100385.06;4985750;28;20037;-83
2021/08/03 11:38:59;;;;;;;4.85;2.13;;;;;;;24.92;40.69;100395.06;4988524;28;20125;-83
2021/08/03 11:41:30;;;;;;;5.30;2.10;;;;;;;24.95;40.79;100384.03;4990580;28;20197;-83
2021/08/03 11:44:25;;;;;;;;;;;;;;;24.79;41.28;100381.53;4967600;28;20035;-83
2021/08/03 11:47:10;;;;;;;4.53;3.00;;;;;;;25.21;41.43;100387.66;4995893;28;19913;-83